createdAt,value
2019-01-12T00:00:33.444Z,101655.34
2019-01-12T00:03:02.020Z,101652.80
2019-01-12T00:05:30.765Z,101657.89
2019-01-12T00:07:59.549Z,101648.59
2019-01-12T00:10:27.958Z,101661.61
2019-01-12T00:12:56.637Z,101658.29
2019-01-12T00:15:25.414Z,101645.08
2019-01-12T00:17:54.137Z,101647.22
2019-01-12T00:20:22.576Z,101648.13
2019-01-12T00:22:51.075Z,101641.77
2019-01-12T00:25:19.925Z,101645.08
2019-01-12T00:27:48.722Z,101647.63
2019-01-12T00:30:17.566Z,101644.21
2019-01-12T00:32:46.326Z,101642.88
2019-01-12T00:35:15.028Z,101640.34
2019-01-12T00:37:43.809Z,101639.06
2019-01-12T00:40:12.724Z,101641.61
2019-01-12T00:42:41.412Z,101642.01
2019-01-12T00:45:12.728Z,101624.15
2019-01-12T00:47:41.423Z,101635.98
2019-01-12T00:50:13.434Z,101633.78
2019-01-12T00:52:42.174Z,101635.45
2019-01-12T00:55:10.946Z,101631.18
2019-01-12T00:57:39.793Z,101635.80
2019-01-12T01:00:14.265Z,101636.59
2019-01-12T01:02:43.172Z,101632.32
2019-01-12T01:05:12.079Z,101634.39
2019-01-12T01:07:40.944Z,101632.25
2019-01-12T01:10:12.651Z,101635.60
2019-01-12T01:12:41.353Z,101625.84
2019-01-12T01:15:11.680Z,101632.99
2019-01-12T01:17:40.168Z,101631.72
2019-01-12T01:20:11.798Z,101630.92
2019-01-12T01:22:40.236Z,101635.13
2019-01-12T01:25:10.095Z,101631.72
2019-01-12T01:27:38.923Z,101632.49
2019-01-12T01:30:13.820Z,101634.97
2019-01-12T01:32:42.567Z,101633.77
2019-01-12T01:35:11.703Z,101630.76
2019-01-12T01:37:40.385Z,101639.25
2019-01-12T01:40:11.828Z,101639.65
2019-01-12T01:42:40.571Z,101637.11
2019-01-12T01:45:11.604Z,101644.33
2019-01-12T01:47:40.317Z,101646.00
2019-01-12T01:50:11.144Z,101641.59
2019-01-12T01:52:39.876Z,101641.73
2019-01-12T01:55:10.414Z,101633.30
2019-01-12T01:57:39.120Z,101643.93
2019-01-12T02:00:13.460Z,101643.06
2019-01-12T02:02:41.950Z,101635.84
2019-01-12T02:05:10.496Z,101633.30
2019-01-12T02:07:39.345Z,101632.43
2019-01-12T02:10:10.822Z,101627.81
2019-01-12T02:12:39.544Z,101623.94
2019-01-12T02:15:11.269Z,101627.34
2019-01-12T02:17:39.962Z,101614.17
2019-01-12T02:20:10.936Z,101615.84
2019-01-12T02:22:39.355Z,101612.84
2019-01-12T02:25:10.379Z,101618.32
2019-01-12T02:27:38.861Z,101613.64
2019-01-12T02:30:22.131Z,101611.50
2019-01-12T02:32:50.925Z,101486.98
2019-01-12T02:35:19.888Z,101616.98
2019-01-12T02:37:48.559Z,101622.94
2019-01-12T02:40:17.322Z,101611.09
2019-01-12T02:42:45.745Z,101609.36
2019-01-12T02:45:14.680Z,101604.28
2019-01-12T02:47:43.176Z,101604.62
2019-01-12T02:50:13.705Z,101597.46
2019-01-12T02:52:42.464Z,101592.38
2019-01-12T02:55:11.968Z,101596.19
2019-01-12T02:57:40.478Z,101588.91
2019-01-12T03:00:12.548Z,101585.09
2019-01-12T03:02:40.980Z,101583.83
2019-01-12T03:05:09.903Z,101582.55
2019-01-12T03:07:38.649Z,101582.55
2019-01-12T03:10:10.585Z,101582.09
2019-01-12T03:12:39.012Z,101574.86
2019-01-12T03:15:11.000Z,101575.27
2019-01-12T03:17:39.800Z,101472.22
2019-01-12T03:20:11.464Z,101578.67
2019-01-12T03:22:39.921Z,101570.58
2019-01-12T03:25:17.228Z,101567.64
2019-01-12T03:27:39.234Z,101567.64
2019-01-12T03:30:10.981Z,101563.83
2019-01-12T03:32:39.668Z,101556.67
2019-01-12T03:35:08.140Z,101547.72
2019-01-12T03:37:36.920Z,101549.39
2019-01-12T03:40:08.689Z,101546.38
2019-01-12T03:42:37.423Z,101545.52
2019-01-12T03:45:08.539Z,101547.66
2019-01-12T03:47:37.252Z,101551.87
2019-01-12T03:50:08.888Z,101545.91
2019-01-12T03:52:37.844Z,101545.05
2019-01-12T03:55:06.319Z,101564.04
2019-01-12T03:57:35.098Z,101541.64
2019-01-12T04:00:05.302Z,101535.29
2019-01-12T04:02:33.987Z,101539.50
2019-01-12T04:05:02.670Z,101543.62
2019-01-12T04:07:31.358Z,101540.20
2019-01-12T04:10:00.131Z,101531.72
2019-01-12T04:12:28.820Z,101533.86
2019-01-12T04:14:57.609Z,101523.56
2019-01-12T04:17:26.338Z,101524.84
2019-01-12T04:19:55.097Z,101523.10
2019-01-12T04:22:23.792Z,101526.91
2019-01-12T04:24:52.226Z,101523.10
2019-01-12T04:27:22.212Z,101527.31
2019-01-12T04:29:50.893Z,101531.53
2019-01-12T04:32:19.808Z,101531.46
2019-01-12T04:34:48.511Z,101528.92
2019-01-12T04:37:17.196Z,101524.64
2019-01-12T04:39:45.898Z,101525.52
2019-01-12T04:42:14.680Z,101529.32
2019-01-12T04:44:43.364Z,101524.98
2019-01-12T04:47:12.150Z,101527.05
2019-01-12T04:49:40.928Z,101523.65
2019-01-12T04:52:09.637Z,101524.52
2019-01-12T04:54:38.308Z,101527.46
2019-01-12T04:57:06.994Z,101255.65
2019-01-12T04:59:35.447Z,101516.49
2019-01-12T05:02:04.197Z,101521.98
2019-01-12T05:04:32.899Z,101521.11
2019-01-12T05:07:01.449Z,101513.48
2019-01-12T05:09:30.151Z,101513.89
2019-01-12T05:11:58.565Z,101518.56
2019-01-12T05:14:26.966Z,101516.36
2019-01-12T05:16:55.653Z,101522.72
2019-01-12T05:19:24.440Z,101522.72
2019-01-12T05:21:52.860Z,101522.31
2019-01-12T05:24:21.579Z,101520.63
2019-01-12T05:26:50.005Z,101524.69
2019-01-12T05:29:18.432Z,101522.55
2019-01-12T05:31:47.098Z,101529.70
2019-01-12T05:34:15.847Z,101524.16
2019-01-12T05:36:44.561Z,101526.23
2019-01-12T05:39:12.959Z,101521.63
2019-01-12T05:41:41.642Z,101518.61
2019-01-12T05:44:10.053Z,101523.36
2019-01-12T05:46:38.733Z,101524.56
2019-01-12T05:49:07.532Z,101515.61
2019-01-12T05:51:36.015Z,101522.36
2019-01-12T05:54:04.961Z,101526.17
2019-01-12T05:56:33.390Z,101529.98
2019-01-12T05:59:02.034Z,101525.30
2019-01-12T06:01:30.817Z,101517.68
2019-01-12T06:03:59.595Z,101510.87
2019-01-12T06:06:28.334Z,101513.28
2019-01-12T06:08:57.039Z,101514.27
2019-01-12T06:11:25.751Z,101513.00
2019-01-12T06:13:54.467Z,101507.92
2019-01-12T06:16:23.187Z,101514.20
2019-01-12T06:18:51.669Z,101513.34
2019-01-12T06:21:20.440Z,101504.39
2019-01-12T06:23:49.195Z,101499.31
2019-01-12T06:26:17.997Z,101492.09
2019-01-12T06:28:46.409Z,101484.41
2019-01-12T06:31:14.917Z,101493.30
2019-01-12T06:33:43.621Z,101486.48
2019-01-12T06:36:12.467Z,101486.41
2019-01-12T06:38:40.891Z,101483.08
2019-01-12T06:41:09.682Z,101478.73
2019-01-12T06:43:38.185Z,101486.25
2019-01-12T06:46:06.617Z,101481.11
2019-01-12T06:48:35.339Z,101473.09
2019-01-12T06:51:04.124Z,101475.23
2019-01-12T06:53:35.189Z,101470.95
2019-01-12T06:56:10.689Z,101461.60
2019-01-12T06:58:35.418Z,101459.41
2019-01-12T07:01:04.165Z,101454.73
2019-01-12T07:03:34.259Z,101456.86
2019-01-12T07:06:02.742Z,101451.78
2019-01-12T07:08:31.447Z,101444.17
2019-01-12T07:10:59.878Z,101446.30
2019-01-12T07:13:28.643Z,101439.03
2019-01-12T07:15:57.081Z,101441.09
2019-01-12T07:18:25.481Z,101446.23
2019-01-12T07:20:54.194Z,101441.97
2019-01-12T07:23:22.888Z,101441.50
2019-01-12T07:25:51.584Z,101443.64
2019-01-12T07:28:20.021Z,101438.56
2019-01-12T07:30:48.705Z,101443.30
2019-01-12T07:33:17.133Z,101437.76
2019-01-12T07:35:45.822Z,101435.16
2019-01-12T07:38:14.520Z,101437.23
2019-01-12T07:40:43.199Z,101432.95
2019-01-12T07:43:11.943Z,101422.33
2019-01-12T07:45:40.673Z,101414.25
2019-01-12T07:48:09.397Z,101409.98
2019-01-12T07:50:38.097Z,101410.44
2019-01-12T07:53:06.770Z,101412.11
2019-01-12T07:55:35.467Z,101407.31
2019-01-12T07:58:04.034Z,101399.30
2019-01-12T08:00:32.734Z,101403.50
2019-01-12T08:03:01.531Z,101394.62
2019-01-12T08:05:30.283Z,101394.13
2019-01-12T08:07:59.854Z,101383.56
2019-01-12T08:10:28.257Z,101392.55
2019-01-12T08:12:57.016Z,101387.77
2019-01-12T08:15:25.800Z,101382.39
2019-01-12T08:17:54.547Z,101383.50
2019-01-12T08:20:23.404Z,101384.06
2019-01-12T08:22:53.593Z,101374.31
2019-01-12T08:25:22.618Z,101368.83
2019-01-12T08:27:51.108Z,101359.55
2019-01-12T08:30:19.982Z,101357.88
2019-01-12T08:32:48.677Z,101364.28
2019-01-12T08:35:17.280Z,101361.28
2019-01-12T08:37:46.145Z,101349.52
2019-01-12T08:40:14.980Z,101351.65
2019-01-12T08:42:43.728Z,101350.32
2019-01-12T08:45:13.815Z,101346.52
2019-01-12T08:47:42.695Z,101350.32
2019-01-12T08:50:14.431Z,101357.94
2019-01-12T08:52:44.446Z,101364.75
2019-01-12T08:55:13.362Z,101376.17
2019-01-12T08:57:43.686Z,101381.25
2019-01-12T09:00:17.520Z,101379.64
2019-01-12T09:02:46.302Z,101362.73
2019-01-12T09:05:14.782Z,101355.52
2019-01-12T09:07:44.615Z,101342.08
2019-01-12T09:10:15.800Z,101341.28
2019-01-12T09:12:44.548Z,101332.86
2019-01-12T09:15:13.474Z,101319.30
2019-01-12T09:17:42.182Z,101322.30
2019-01-12T09:20:13.428Z,101312.61
2019-01-12T09:22:42.253Z,101311.34
2019-01-12T09:25:11.291Z,101295.70
2019-01-12T09:27:40.120Z,101300.84
2019-01-12T09:30:14.467Z,101298.77
2019-01-12T09:32:43.130Z,101298.36
2019-01-12T09:35:11.626Z,101301.45
2019-01-12T09:37:40.366Z,101302.27
2019-01-12T09:40:12.421Z,101296.78
2019-01-12T09:42:41.106Z,101295.58
2019-01-12T09:45:11.958Z,101293.03
2019-01-12T09:47:40.604Z,101288.88
2019-01-12T09:50:12.202Z,101279.30
2019-01-12T09:52:41.024Z,101273.94
2019-01-12T09:55:09.863Z,101269.73
2019-01-12T09:57:38.313Z,101270.13
2019-01-12T10:00:15.117Z,101263.84
2019-01-12T10:02:43.595Z,101251.55
2019-01-12T10:05:12.747Z,101250.68
2019-01-12T10:07:41.468Z,101257.55
2019-01-12T10:10:13.369Z,101244.45
2019-01-12T10:12:42.051Z,101234.69
2019-01-12T10:15:11.582Z,101241.91
2019-01-12T10:17:40.359Z,101227.02
2019-01-12T10:20:12.360Z,101214.78
2019-01-12T10:22:40.885Z,101215.23
2019-01-12T10:25:10.636Z,101211.12
2019-01-12T10:27:39.480Z,101209.04
2019-01-12T10:30:14.260Z,101206.55
2019-01-12T10:32:42.764Z,101206.96
2019-01-12T10:35:11.589Z,101208.58
2019-01-12T10:37:40.107Z,101193.05
2019-01-12T10:40:11.920Z,101212.27
2019-01-12T10:42:40.673Z,101201.70
2019-01-12T10:45:12.800Z,101191.95
2019-01-12T10:47:43.122Z,101182.53
2019-01-12T10:50:15.054Z,101181.56
2019-01-12T10:52:43.815Z,101170.59
2019-01-12T10:55:12.383Z,101163.78
2019-01-12T10:57:41.053Z,101170.94
2019-01-12T11:00:15.873Z,101155.30
2019-01-12T11:02:44.366Z,101147.62
2019-01-12T11:05:13.320Z,101151.34
2019-01-12T11:07:42.103Z,101143.73
2019-01-12T11:10:13.150Z,101143.81
2019-01-12T11:12:41.973Z,101148.55
2019-01-12T11:15:18.786Z,101121.53
2019-01-12T11:17:47.290Z,101122.80
2019-01-12T11:20:16.139Z,101112.58
2019-01-12T11:22:46.644Z,101122.34
2019-01-12T11:25:15.927Z,101123.31
2019-01-12T11:27:44.743Z,101123.72
2019-01-12T11:30:19.011Z,101108.83
2019-01-12T11:32:47.818Z,101119.23
2019-01-12T11:35:16.582Z,101122.09
2019-01-12T11:37:45.423Z,101107.20
2019-01-12T11:40:19.246Z,101098.20
2019-01-12T11:42:48.440Z,101093.36
2019-01-12T11:45:17.284Z,101082.29
2019-01-12T11:47:46.214Z,101074.53
2019-01-12T11:50:16.755Z,101067.27
2019-01-12T11:52:46.487Z,101071.94
2019-01-12T11:55:17.251Z,101063.05
2019-01-12T11:57:45.989Z,101052.49
2019-01-12T12:00:23.343Z,101053.76
2019-01-12T12:02:51.882Z,101036.85
2019-01-12T12:05:20.561Z,101031.05
2019-01-12T12:07:49.122Z,101028.16
2019-01-12T12:10:19.360Z,101012.87
2019-01-12T12:12:48.137Z,101003.94
2019-01-12T12:15:19.190Z,101007.39
2019-01-12T12:17:48.049Z,100997.18
2019-01-12T12:20:21.813Z,100987.89
2019-01-12T12:22:50.589Z,100980.33
2019-01-12T12:25:19.250Z,100974.84
2019-01-12T12:27:47.987Z,100962.60
2019-01-12T12:30:27.817Z,100951.18
2019-01-12T12:32:56.367Z,100952.50
2019-01-12T12:35:25.200Z,100940.62
2019-01-12T12:37:53.866Z,100940.66
2019-01-12T12:40:24.215Z,100931.02
2019-01-12T12:42:52.897Z,100922.64
2019-01-12T12:45:25.066Z,100916.69
2019-01-12T12:47:53.702Z,100912.94
2019-01-12T12:50:22.401Z,100912.08
2019-01-12T12:52:50.963Z,100897.70
2019-01-12T12:55:20.079Z,100900.69
2019-01-12T12:57:48.638Z,100894.48
2019-01-12T13:00:20.060Z,100890.18
2019-01-12T13:02:49.021Z,100882.69
2019-01-12T13:05:17.788Z,100887.87
2019-01-12T13:07:46.699Z,100878.63
2019-01-12T13:10:25.251Z,100875.27
2019-01-12T13:12:54.192Z,100869.83
2019-01-12T13:15:23.531Z,100878.81
2019-01-12T13:17:52.381Z,100863.67
2019-01-12T13:20:21.313Z,100862.48
2019-01-12T13:22:50.106Z,100851.91
2019-01-12T13:25:19.023Z,100846.42
2019-01-12T13:27:47.875Z,100845.16
2019-01-12T13:30:19.188Z,100835.85
2019-01-12T13:32:48.050Z,100832.41
2019-01-12T13:35:16.900Z,100830.65
2019-01-12T13:37:45.745Z,100829.38
2019-01-12T13:40:21.658Z,100824.78
2019-01-12T13:42:50.339Z,100821.83
2019-01-12T13:45:20.564Z,100821.47
2019-01-12T13:47:49.411Z,100815.53
2019-01-12T13:50:20.758Z,100810.45
2019-01-12T13:52:49.245Z,100806.28
2019-01-12T13:55:17.909Z,100811.36
2019-01-12T13:57:47.759Z,100802.52
2019-01-12T14:00:28.632Z,100791.94
2019-01-12T14:02:57.852Z,100792.39
2019-01-12T14:05:26.618Z,100795.02
2019-01-12T14:07:56.452Z,100785.36
2019-01-12T14:10:27.121Z,100782.86
2019-01-12T14:12:55.905Z,100782.05
2019-01-12T14:15:24.807Z,100780.90
2019-01-12T14:17:53.541Z,100786.06
2019-01-12T14:20:28.250Z,100783.98
2019-01-12T14:22:57.033Z,100775.54
2019-01-12T14:25:27.143Z,100774.72
2019-01-12T14:27:55.858Z,100772.63
2019-01-12T14:30:24.951Z,100771.91
2019-01-12T14:32:53.380Z,100767.22
2019-01-12T14:35:22.235Z,100762.97
2019-01-12T14:37:51.376Z,100759.64
2019-01-12T14:40:21.599Z,100748.20
2019-01-12T14:42:50.155Z,100749.48
2019-01-12T14:45:24.156Z,100743.17
2019-01-12T14:47:52.657Z,100747.92
2019-01-12T14:50:21.147Z,100736.97
2019-01-12T14:52:50.115Z,100736.16
2019-01-12T14:55:20.833Z,100755.63
2019-01-12T14:57:49.679Z,100733.61
2019-01-12T15:00:20.637Z,100735.74
2019-01-12T15:02:49.502Z,100734.11
2019-01-12T15:05:20.312Z,100735.42
2019-01-12T15:07:48.799Z,100737.09
2019-01-12T15:10:20.710Z,100736.23
2019-01-12T15:12:50.461Z,100737.96
2019-01-12T15:15:19.699Z,100743.50
2019-01-12T15:17:48.364Z,100737.55
2019-01-12T15:20:19.037Z,100735.46
2019-01-12T15:22:47.841Z,100744.40
2019-01-12T15:25:16.509Z,100741.08
2019-01-12T15:27:44.996Z,100735.58
2019-01-12T15:30:16.584Z,100742.39
2019-01-12T15:32:45.028Z,100730.13
2019-01-12T15:35:14.523Z,100731.41
2019-01-12T15:37:43.540Z,100733.16
2019-01-12T15:40:15.449Z,100726.39
2019-01-12T15:42:44.115Z,100724.26
2019-01-12T15:45:21.065Z,100725.45
2019-01-12T15:47:49.973Z,100720.45
2019-01-12T15:50:20.819Z,100719.73
2019-01-12T15:52:49.372Z,100713.75
2019-01-12T15:55:19.783Z,100711.66
2019-01-12T15:57:48.553Z,100711.30
2019-01-12T16:00:25.287Z,100701.98
2019-01-12T16:02:54.054Z,100697.76
2019-01-12T16:05:22.894Z,100698.66
2019-01-12T16:07:51.724Z,100693.58
2019-01-12T16:10:20.744Z,100692.75
2019-01-12T16:12:49.303Z,100682.66
2019-01-12T16:15:20.079Z,100672.94
2019-01-12T16:17:51.210Z,100678.47
2019-01-12T16:20:22.096Z,100683.56
2019-01-12T16:22:50.560Z,100680.12
2019-01-12T16:25:20.431Z,100674.77
2019-01-12T16:27:48.962Z,100672.83
2019-01-12T16:30:21.483Z,100676.68
2019-01-12T16:32:50.257Z,100678.77
2019-01-12T16:35:19.140Z,100679.67
2019-01-12T16:37:47.681Z,100672.91
2019-01-12T16:40:21.835Z,100669.69
2019-01-12T16:42:50.603Z,100670.89
2019-01-12T16:45:19.632Z,100654.42
2019-01-12T16:47:48.370Z,100659.85
2019-01-12T16:50:16.962Z,100662.09
2019-01-12T16:52:45.477Z,100664.70
2019-01-12T16:55:15.936Z,100667.70
2019-01-12T16:57:44.913Z,100668.11
2019-01-12T17:00:16.857Z,100662.20
2019-01-12T17:02:46.029Z,100668.15
2019-01-12T17:05:14.809Z,100655.02
2019-01-12T17:07:43.494Z,100666.50
2019-01-12T17:10:14.641Z,100646.56
2019-01-12T17:12:43.402Z,100653.33
2019-01-12T17:15:14.523Z,100642.71
2019-01-12T17:17:43.085Z,100640.61
2019-01-12T17:20:15.229Z,100637.63
2019-01-12T17:22:44.576Z,100637.17
2019-01-12T17:25:13.533Z,100630.37
2019-01-12T17:27:42.237Z,100628.20
2019-01-12T17:30:22.328Z,100624.28
2019-01-12T17:32:51.180Z,100626.75
2019-01-12T17:35:19.898Z,100624.20
2019-01-12T17:37:48.829Z,100631.39
2019-01-12T17:40:18.173Z,100630.56
2019-01-12T17:42:47.008Z,100605.77
2019-01-12T17:45:23.926Z,100618.74
2019-01-12T17:47:52.497Z,100622.63
2019-01-12T17:50:23.038Z,100620.47
2019-01-12T17:52:51.888Z,100631.91
2019-01-12T17:55:22.571Z,100613.77
2019-01-12T17:57:51.367Z,100620.98
2019-01-12T18:00:23.843Z,100628.09
2019-01-12T18:02:52.718Z,100626.03
2019-01-12T18:05:21.423Z,100629.02
2019-01-12T18:07:50.003Z,100629.88
2019-01-12T18:10:18.474Z,100639.64
2019-01-12T18:12:47.199Z,100630.74
2019-01-12T18:15:16.565Z,100629.13
2019-01-12T18:17:45.069Z,100635.94
2019-01-12T18:20:18.043Z,100631.19
2019-01-12T18:22:46.811Z,100649.41
2019-01-12T18:25:16.892Z,100644.39
2019-01-12T18:27:45.858Z,100640.58
2019-01-12T18:30:19.535Z,100652.84
2019-01-12T18:32:48.079Z,100646.48
2019-01-12T18:35:16.638Z,100651.95
2019-01-12T18:37:45.493Z,100653.70
2019-01-12T18:40:19.037Z,100640.13
2019-01-12T18:42:47.863Z,100635.08
2019-01-12T18:45:20.638Z,100636.34
2019-01-12T18:47:49.441Z,100638.03
2019-01-12T18:50:21.021Z,100643.16
2019-01-12T18:52:50.753Z,100639.79
2019-01-12T18:55:19.198Z,100636.73
2019-01-12T18:57:47.669Z,100631.60
2019-01-12T19:00:21.459Z,100630.30
2019-01-12T19:02:50.215Z,100643.02
2019-01-12T19:05:18.964Z,100644.28
2019-01-12T19:07:47.725Z,100647.58
2019-01-12T19:10:16.531Z,100639.20
2019-01-12T19:12:45.445Z,100642.64
2019-01-12T19:15:17.147Z,100646.08
2019-01-12T19:17:45.726Z,100657.11
2019-01-12T19:20:14.696Z,100653.78
2019-01-12T19:22:43.521Z,100638.89
2019-01-12T19:25:14.017Z,100635.83
2019-01-12T19:27:42.784Z,100642.16
2019-01-12T19:30:22.458Z,100641.70
2019-01-12T19:32:51.277Z,100625.10
2019-01-12T19:35:20.095Z,100635.34
2019-01-12T19:37:48.674Z,100637.92
2019-01-12T19:40:19.538Z,100631.16
2019-01-12T19:42:48.330Z,100630.19
2019-01-12T19:45:17.243Z,100625.48
2019-01-12T19:47:46.088Z,100617.84
2019-01-12T19:50:17.428Z,100622.97
2019-01-12T19:52:46.280Z,100623.34
2019-01-12T19:55:14.965Z,100623.38
2019-01-12T19:57:43.747Z,100630.64
2019-01-12T20:00:21.160Z,100618.40
2019-01-12T20:02:51.557Z,100617.44
2019-01-12T20:05:22.305Z,100613.96
2019-01-12T20:07:51.055Z,100613.52
2019-01-12T20:10:20.000Z,100599.97
2019-01-12T20:12:48.629Z,100609.28
2019-01-12T20:15:19.796Z,100607.98
2019-01-12T20:17:48.571Z,100614.78
2019-01-12T20:20:17.841Z,100609.70
2019-01-12T20:22:46.603Z,100610.66
2019-01-12T20:25:20.932Z,100610.77
2019-01-12T20:27:49.368Z,100620.57
2019-01-12T20:30:29.721Z,100601.53
2019-01-12T20:33:29.878Z,100606.99
2019-01-12T20:36:13.814Z,100601.05
2019-01-12T20:38:54.492Z,100596.92
2019-01-12T20:41:38.240Z,100598.09
2019-01-12T20:44:24.742Z,100593.48
2019-01-12T20:47:11.325Z,100602.31
2019-01-12T20:49:42.755Z,100598.05
2019-01-12T20:52:17.397Z,100597.75
2019-01-12T20:54:52.108Z,100589.29
2019-01-12T20:57:47.899Z,100596.85
2019-01-12T21:00:40.934Z,100592.59
2019-01-12T21:03:12.425Z,100601.19
2019-01-12T21:05:44.174Z,100595.23
2019-01-12T21:08:30.530Z,100594.00
2019-01-12T21:11:02.280Z,100592.73
2019-01-12T21:14:03.137Z,100581.66
2019-01-12T21:16:33.646Z,100579.87
2019-01-12T21:19:02.220Z,100576.06
2019-01-12T21:21:30.730Z,100586.72
2019-01-12T21:23:59.441Z,100578.22
2019-01-12T21:26:28.124Z,100574.41
2019-01-12T21:28:56.651Z,100579.87
2019-01-12T21:31:25.426Z,100573.89
2019-01-12T21:33:54.144Z,100575.95
2019-01-12T21:36:23.016Z,100570.87
2019-01-12T21:38:51.675Z,100575.50
2019-01-12T21:41:20.344Z,100569.25
2019-01-12T21:43:49.057Z,100577.33
2019-01-12T21:46:17.483Z,100569.73
2019-01-12T21:48:45.892Z,100577.78
2019-01-12T21:51:14.659Z,100575.68
2019-01-12T21:53:43.504Z,100570.97
2019-01-12T21:56:13.767Z,100575.16
2019-01-12T21:58:42.555Z,100572.55
2019-01-12T22:01:12.183Z,100576.70
2019-01-12T22:03:42.518Z,100583.10
2019-01-12T22:06:11.309Z,100580.52
2019-01-12T22:08:40.086Z,100573.34
2019-01-12T22:11:08.999Z,100577.56
2019-01-12T22:13:37.754Z,100569.56
2019-01-12T22:16:06.549Z,100577.16
2019-01-12T22:18:35.331Z,100563.13
2019-01-12T22:21:03.915Z,100569.53
2019-01-12T22:23:33.952Z,100575.44
2019-01-12T22:26:02.702Z,100566.95
2019-01-12T22:28:31.109Z,100575.06
2019-01-12T22:30:59.521Z,100431.88
2019-01-12T22:33:28.379Z,100573.92
2019-01-12T22:35:57.173Z,100571.77
2019-01-12T22:38:25.865Z,100575.95
2019-01-12T22:40:54.295Z,100577.30
2019-01-12T22:43:22.732Z,100579.02
2019-01-12T22:45:51.435Z,100579.02
2019-01-12T22:48:19.859Z,100573.52
2019-01-12T22:50:48.870Z,100569.31
2019-01-12T22:53:17.609Z,100580.05
2019-01-12T22:55:46.288Z,100571.59
2019-01-12T22:58:15.063Z,100571.66
2019-01-12T23:00:53.957Z,100564.53
2019-01-12T23:03:22.743Z,100567.46
2019-01-12T23:05:51.502Z,100563.58
2019-01-12T23:08:20.277Z,100571.63
2019-01-12T23:10:48.775Z,100563.16
2019-01-12T23:13:17.606Z,100563.61
2019-01-12T23:15:46.457Z,100562.85
2019-01-12T23:18:15.241Z,100564.88
2019-01-12T23:20:43.805Z,100559.80
2019-01-12T23:23:12.738Z,100558.94
2019-01-12T23:25:41.569Z,100549.63
2019-01-12T23:28:10.051Z,100555.16
2019-01-12T23:30:38.950Z,100541.09
2019-01-12T23:33:07.727Z,100554.64
2019-01-12T23:35:36.495Z,100537.25
2019-01-12T23:38:05.759Z,100543.70
2019-01-12T23:40:34.514Z,100541.26
2019-01-12T23:43:03.384Z,100533.18
2019-01-12T23:45:32.189Z,100537.83
2019-01-12T23:48:00.593Z,100539.55
2019-01-12T23:50:29.267Z,100539.89
2019-01-12T23:52:58.012Z,100542.91
2019-01-12T23:55:26.705Z,100548.58
2019-01-12T23:57:55.438Z,100540.05
